createdAt,value
2023-03-01T00:00:43.216Z,23.59
2023-03-01T00:02:47.650Z,23.65
2023-03-01T00:04:52.118Z,23.51
2023-03-01T00:06:56.515Z,23.69
2023-03-01T00:09:00.873Z,23.58
2023-03-01T00:11:05.504Z,23.64
2023-03-01T00:13:09.917Z,23.63
2023-03-01T00:15:14.317Z,23.62
2023-03-01T00:17:18.694Z,23.63
2023-03-01T00:19:23.223Z,23.76
2023-03-01T00:21:27.741Z,23.83
2023-03-01T00:23:32.190Z,23.96
2023-03-01T00:25:36.636Z,23.98
2023-03-01T00:27:41.047Z,23.8
2023-03-01T00:29:45.443Z,23.91
2023-03-01T00:31:50.012Z,23.8
2023-03-01T00:33:54.414Z,23.79
2023-03-01T00:35:59.086Z,23.43
2023-03-01T00:38:03.567Z,23.72
2023-03-01T00:40:07.942Z,23.47
2023-03-01T00:42:12.355Z,23.6
2023-03-01T00:44:16.757Z,23.64
2023-03-01T00:46:21.438Z,23.76
2023-03-01T00:48:25.821Z,24.02
2023-03-01T00:50:30.228Z,23.86
2023-03-01T00:52:34.752Z,23.7
2023-03-01T00:54:39.126Z,23.72
2023-03-01T00:56:43.526Z,23.47
2023-03-01T00:58:47.936Z,23.44
2023-03-01T01:00:52.344Z,23.75
2023-03-01T01:02:56.936Z,23.64
2023-03-01T01:05:01.328Z,23.94
2023-03-01T01:07:05.716Z,23.92
2023-03-01T01:09:10.122Z,24.73
2023-03-01T01:11:14.503Z,24.43
2023-03-01T01:13:18.854Z,23.97
2023-03-01T01:15:23.408Z,23.52
2023-03-01T01:17:27.824Z,23.72
2023-03-01T01:19:32.206Z,23.49
2023-03-01T01:21:36.658Z,23.47
2023-03-01T01:23:41.039Z,23.69
2023-03-01T01:25:45.422Z,23.81
2023-03-01T01:27:49.815Z,23.73
2023-03-01T01:29:54.202Z,23.97
2023-03-01T01:31:58.811Z,23.76
2023-03-01T01:34:03.308Z,23.31
2023-03-01T01:36:07.811Z,23.17
2023-03-01T01:38:12.285Z,23.38
2023-03-01T01:40:16.681Z,23.81
2023-03-01T01:42:21.252Z,23.42
2023-03-01T01:44:25.791Z,23.34
2023-03-01T01:46:31.571Z,23.01
2023-03-01T01:48:36.175Z,22.97
2023-03-01T01:50:40.630Z,22.94
2023-03-01T01:52:45.031Z,23.3
2023-03-01T01:54:49.465Z,23.39
2023-03-01T01:56:53.864Z,23.34
2023-03-01T01:58:58.270Z,23.33
2023-03-01T02:01:02.708Z,23.54
2023-03-01T02:03:07.596Z,23.12
2023-03-01T02:05:12.190Z,23.16
2023-03-01T02:07:16.571Z,23.44
2023-03-01T02:09:20.975Z,22.93
2023-03-01T02:11:25.381Z,23
2023-03-01T02:13:29.805Z,23.37
2023-03-01T02:15:34.245Z,23.12
2023-03-01T02:17:38.640Z,23.74
2023-03-01T02:19:43.141Z,23.47
2023-03-01T02:21:47.521Z,23.21
2023-03-01T02:23:52.046Z,23.63
2023-03-01T02:25:56.460Z,23.34
2023-03-01T02:28:00.845Z,23.64
2023-03-01T02:30:05.307Z,23.32
2023-03-01T02:32:09.918Z,23.71
2023-03-01T02:34:14.357Z,23.39
2023-03-01T02:36:18.771Z,23.68
2023-03-01T02:38:23.126Z,23.45
2023-03-01T02:40:27.521Z,23.78
2023-03-01T02:42:31.924Z,23.76
2023-03-01T02:44:36.398Z,23.69
2023-03-01T02:46:40.959Z,23.83
2023-03-01T02:48:45.335Z,23.68
2023-03-01T02:50:49.710Z,23.74
2023-03-01T02:52:54.127Z,23.69
2023-03-01T02:54:58.543Z,24.26
2023-03-01T02:57:03.005Z,24.01
2023-03-01T02:59:07.457Z,24.42
2023-03-01T03:01:12.025Z,23.71
2023-03-01T03:03:16.505Z,23.85
2023-03-01T03:05:21.059Z,24.42
2023-03-01T03:07:25.544Z,24.17
2023-03-01T03:09:29.940Z,23.96
2023-03-01T03:11:34.427Z,24.06
2023-03-01T03:13:38.881Z,23.64
2023-03-01T03:15:43.363Z,23.65
2023-03-01T03:17:48.542Z,23.75
2023-03-01T03:19:52.896Z,23.56
2023-03-01T03:21:57.294Z,23.91
2023-03-01T03:24:01.667Z,23.62
2023-03-01T03:26:06.088Z,23.73
2023-03-01T03:28:10.698Z,23.67
2023-03-01T03:30:15.354Z,23.69
2023-03-01T03:32:19.985Z,23.63
2023-03-01T03:34:24.540Z,23.63
2023-03-01T03:36:29.315Z,23.36
2023-03-01T03:38:33.801Z,23.62
2023-03-01T03:40:38.298Z,23.57
2023-03-01T03:42:42.698Z,23.87
2023-03-01T03:44:47.088Z,23.53
2023-03-01T03:46:51.760Z,23.56
2023-03-01T03:48:56.156Z,23.46
2023-03-01T03:51:00.585Z,23.57
2023-03-01T03:53:05.064Z,23.57
2023-03-01T03:55:09.428Z,23.78
2023-03-01T03:57:13.853Z,23.54
2023-03-01T03:59:18.217Z,23.43
2023-03-01T04:01:22.864Z,23.33
2023-03-01T04:03:27.418Z,23.43
2023-03-01T04:05:31.822Z,23.37
2023-03-01T04:07:36.231Z,23.22
2023-03-01T04:09:40.624Z,23.5
2023-03-01T04:11:45.013Z,23.12
2023-03-01T04:13:49.402Z,23.39
2023-03-01T04:15:53.817Z,23.18
2023-03-01T04:17:58.299Z,23.26
2023-03-01T04:20:02.731Z,23.1
2023-03-01T04:22:07.180Z,23.39
2023-03-01T04:24:11.612Z,23.09
2023-03-01T04:26:27.158Z,23.07
2023-03-01T04:28:31.568Z,22.87
2023-03-01T04:30:35.947Z,23.04
2023-03-01T04:32:40.536Z,22.88
2023-03-01T04:34:44.948Z,23.03
2023-03-01T04:36:49.880Z,23.03
2023-03-01T04:38:54.417Z,23.05
2023-03-01T04:40:58.814Z,22.83
2023-03-01T04:43:03.250Z,23.15
2023-03-01T04:45:07.702Z,23.2
2023-03-01T04:47:12.085Z,23.17
2023-03-01T04:49:16.596Z,23.03
2023-03-01T04:51:21.000Z,23.47
2023-03-01T04:53:25.419Z,23.12
2023-03-01T04:55:29.851Z,23.47
2023-03-01T04:57:34.351Z,23.29
2023-03-01T04:59:38.767Z,23.25
2023-03-01T05:01:43.171Z,23.37
2023-03-01T05:03:47.731Z,23.73
2023-03-01T05:05:52.232Z,23.21
2023-03-01T05:07:56.661Z,23.44
2023-03-01T05:10:01.066Z,23.31
2023-03-01T05:12:05.439Z,23.42
2023-03-01T05:14:09.874Z,23.52
2023-03-01T05:16:15.296Z,23.43
2023-03-01T05:18:19.703Z,23.5
2023-03-01T05:20:24.139Z,23.44
2023-03-01T05:22:28.574Z,23.57
2023-03-01T05:24:33.016Z,23.64
2023-03-01T05:26:37.436Z,23.33
2023-03-01T05:28:41.852Z,23.34
2023-03-01T05:30:46.362Z,23.42
2023-03-01T05:32:50.857Z,23.31
2023-03-01T05:34:55.292Z,23.4
2023-03-01T05:36:59.693Z,23.39
2023-03-01T05:39:04.110Z,23.31
2023-03-01T05:41:08.481Z,23.23
2023-03-01T05:43:12.864Z,23.28
2023-03-01T05:45:17.271Z,23.39
2023-03-01T05:47:21.687Z,23.32
2023-03-01T05:49:26.092Z,23.24
2023-03-01T05:51:30.505Z,23.24
2023-03-01T05:53:34.966Z,23.59
2023-03-01T05:55:39.360Z,23.68
2023-03-01T05:57:43.779Z,23.52
2023-03-01T05:59:48.174Z,23.48
2023-03-01T06:01:52.578Z,23.68
2023-03-01T06:03:56.995Z,23.55
2023-03-01T06:06:01.399Z,23.69
2023-03-01T06:08:05.783Z,23.82
2023-03-01T06:10:10.183Z,23.85
2023-03-01T06:12:16.012Z,23.99
2023-03-01T06:14:20.381Z,24.86
2023-03-01T06:16:24.796Z,25.11
2023-03-01T06:18:29.194Z,24.89
2023-03-01T06:20:33.596Z,25.09
2023-03-01T06:22:38.059Z,25.37
2023-03-01T06:24:42.448Z,25.41
2023-03-01T06:26:46.882Z,25.58
2023-03-01T06:28:51.284Z,25.93
2023-03-01T06:30:55.953Z,26.18
2023-03-01T06:33:00.390Z,27.89
2023-03-01T06:35:04.829Z,27.29
2023-03-01T06:37:09.302Z,27.79
2023-03-01T06:39:13.739Z,28.32
2023-03-01T06:41:18.120Z,28.41
2023-03-01T06:43:22.576Z,28.61
2023-03-01T06:45:26.959Z,28.49
2023-03-01T06:47:31.375Z,28.39
2023-03-01T06:49:35.765Z,28.13
2023-03-01T06:51:40.221Z,28.2
2023-03-01T06:53:44.583Z,27.98
2023-03-01T06:55:48.972Z,28.24
2023-03-01T06:57:53.354Z,28.08
2023-03-01T06:59:57.688Z,28.09
2023-03-01T07:02:02.496Z,27.86
2023-03-01T07:04:07.040Z,27.76
2023-03-01T07:06:11.540Z,27.98
2023-03-01T07:08:15.926Z,27.88
2023-03-01T07:10:20.292Z,28
2023-03-01T07:12:24.796Z,28.42
2023-03-01T07:14:29.220Z,28.25
2023-03-01T07:16:35.328Z,28.49
2023-03-01T07:18:39.881Z,28.13
2023-03-01T07:20:44.290Z,28.34
2023-03-01T07:22:48.713Z,28.08
2023-03-01T07:24:53.144Z,28.15
2023-03-01T07:26:57.701Z,28.1
2023-03-01T07:29:02.160Z,28.03
2023-03-01T07:31:06.582Z,28
2023-03-01T07:33:11.291Z,27.98
2023-03-01T07:35:15.765Z,28.01
2023-03-01T07:37:20.130Z,28
2023-03-01T07:39:24.529Z,27.9
2023-03-01T07:41:29.159Z,27.8
2023-03-01T07:43:33.580Z,27.73
2023-03-01T07:45:38.133Z,27.67
2023-03-01T07:47:42.584Z,27.63
2023-03-01T07:49:46.982Z,27.75
2023-03-01T07:51:51.407Z,27.68
2023-03-01T07:53:55.867Z,27.71
2023-03-01T07:56:00.278Z,27.72
2023-03-01T07:58:04.853Z,27.79
2023-03-01T08:00:09.292Z,27.7
2023-03-01T08:02:14.201Z,27.86
2023-03-01T08:04:18.598Z,27.83
2023-03-01T08:06:23.365Z,27.79
2023-03-01T08:08:27.752Z,27.78
2023-03-01T08:10:32.161Z,27.92
2023-03-01T08:12:36.571Z,27.81
2023-03-01T08:14:40.981Z,27.82
2023-03-01T08:16:45.622Z,27.76
2023-03-01T08:18:50.086Z,27.7
2023-03-01T08:20:54.501Z,27.7
2023-03-01T08:22:58.917Z,27.71
2023-03-01T08:25:03.370Z,27.63
2023-03-01T08:27:07.981Z,27.62
2023-03-01T08:29:12.420Z,27.65
2023-03-01T08:31:17.314Z,27.6
2023-03-01T08:33:22.032Z,27.5
2023-03-01T08:35:29.697Z,27.49
2023-03-01T08:37:34.151Z,27.52
2023-03-01T08:39:38.822Z,27.41
2023-03-01T08:41:43.299Z,27.46
2023-03-01T08:43:47.932Z,27.4
2023-03-01T08:45:52.592Z,27.43
2023-03-01T08:47:57.069Z,27.38
2023-03-01T08:50:01.612Z,27.39
2023-03-01T08:52:06.291Z,27.4
2023-03-01T08:54:10.800Z,27.43
2023-03-01T08:56:15.325Z,27.5
2023-03-01T08:58:19.726Z,27.47
2023-03-01T09:00:24.212Z,27.44
2023-03-01T09:02:29.005Z,27.37
2023-03-01T09:04:33.370Z,27.38
2023-03-01T09:06:37.814Z,27.58
2023-03-01T09:08:42.398Z,27.61
2023-03-01T09:10:46.861Z,27.6
2023-03-01T09:12:51.301Z,27.6
2023-03-01T09:14:55.728Z,27.58
2023-03-01T09:17:00.473Z,27.63
2023-03-01T09:19:04.922Z,27.58
2023-03-01T09:21:09.470Z,27.57
2023-03-01T09:23:13.876Z,27.54
2023-03-01T09:25:18.286Z,27.63
2023-03-01T09:27:22.729Z,27.69
2023-03-01T09:29:27.188Z,27.68
2023-03-01T09:31:31.736Z,27.71
2023-03-01T09:33:36.258Z,27.57
2023-03-01T09:35:40.826Z,27.58
2023-03-01T09:37:45.440Z,27.33
2023-03-01T09:39:49.949Z,27.6
2023-03-01T09:41:54.407Z,27.65
2023-03-01T09:43:58.957Z,27.6
2023-03-01T09:46:03.607Z,27.31
2023-03-01T09:48:08.077Z,27.42
2023-03-01T09:50:12.541Z,27.46
2023-03-01T09:52:16.985Z,27.15
2023-03-01T09:54:21.390Z,27.33
2023-03-01T09:56:25.822Z,27.33
2023-03-01T09:58:30.234Z,27.27
2023-03-01T10:00:34.787Z,27.32
2023-03-01T10:02:39.207Z,27.3
2023-03-01T10:04:43.819Z,27.18
2023-03-01T10:06:48.376Z,27.27
2023-03-01T10:08:52.790Z,27.2
2023-03-01T10:10:57.241Z,27.3
2023-03-01T10:13:01.800Z,27.2
2023-03-01T10:15:06.218Z,27.18
2023-03-01T10:17:10.723Z,27.21
2023-03-01T10:19:15.229Z,27.21
2023-03-01T10:21:19.758Z,27.24
2023-03-01T10:23:24.209Z,27.24
2023-03-01T10:25:28.589Z,27.27
2023-03-01T10:27:33.027Z,27.19
2023-03-01T10:29:37.536Z,27.18
2023-03-01T10:31:42.057Z,27.18
2023-03-01T10:33:46.589Z,27.11
2023-03-01T10:35:51.092Z,27.13
2023-03-01T10:37:55.564Z,27.11
2023-03-01T10:40:00.020Z,27.11
2023-03-01T10:42:04.450Z,27.06
2023-03-01T10:44:09.164Z,27.09
2023-03-01T10:46:13.845Z,27.09
2023-03-01T10:48:18.320Z,27.07
2023-03-01T10:50:22.867Z,27.02
2023-03-01T10:52:27.370Z,27.07
2023-03-01T10:54:31.853Z,27.21
2023-03-01T10:56:36.250Z,27.11
2023-03-01T10:58:40.941Z,27.38
2023-03-01T11:00:45.344Z,27.52
2023-03-01T11:02:49.713Z,27.56
2023-03-01T11:04:54.344Z,27.5
2023-03-01T11:06:58.870Z,27.53
2023-03-01T11:09:03.400Z,27.48
2023-03-01T11:11:07.906Z,27.46
2023-03-01T11:13:12.361Z,27.45
2023-03-01T11:15:17.023Z,27.53
2023-03-01T11:17:21.455Z,27.46
2023-03-01T11:19:25.899Z,27.5
2023-03-01T11:21:31.134Z,27.44
2023-03-01T11:23:35.742Z,27.41
2023-03-01T11:25:40.229Z,27.38
2023-03-01T11:27:44.624Z,27.34
2023-03-01T11:29:51.348Z,27.41
2023-03-01T11:32:00.517Z,27.46
2023-03-01T11:34:05.147Z,27.36
2023-03-01T11:36:09.773Z,27.26
2023-03-01T11:38:14.363Z,27.27
2023-03-01T11:40:18.842Z,27.24
2023-03-01T11:42:23.362Z,27.22
2023-03-01T11:44:27.820Z,27.15
2023-03-01T11:46:32.894Z,27.11
2023-03-01T11:48:51.597Z,27.05
2023-03-01T11:50:56.014Z,27.09
2023-03-01T11:53:00.432Z,27.05
2023-03-01T11:55:04.920Z,27.06
2023-03-01T11:57:09.446Z,27.01
2023-03-01T11:59:13.991Z,26.97
2023-03-01T12:01:18.523Z,26.97
2023-03-01T12:03:22.967Z,26.93
2023-03-01T12:05:27.404Z,26.9
2023-03-01T12:07:32.399Z,26.78
2023-03-01T12:09:36.893Z,26.63
2023-03-01T12:11:42.343Z,26.59
2023-03-01T12:13:46.902Z,26.56
2023-03-01T12:15:51.430Z,26.5
2023-03-01T12:17:55.904Z,26.56
2023-03-01T12:20:00.322Z,26.56
2023-03-01T12:22:04.769Z,26.58
2023-03-01T12:24:09.271Z,26.53
2023-03-01T12:26:16.080Z,26.55
2023-03-01T12:28:20.544Z,26.59
2023-03-01T12:30:24.975Z,26.52
2023-03-01T12:32:35.335Z,26.56
2023-03-01T12:34:39.910Z,26.54
2023-03-01T12:36:44.328Z,26.54
2023-03-01T12:38:48.808Z,26.52
2023-03-01T12:40:53.204Z,26.64
2023-03-01T12:42:57.620Z,26.66
2023-03-01T12:45:02.169Z,26.66
2023-03-01T12:47:06.625Z,26.64
2023-03-01T12:49:11.153Z,26.63
2023-03-01T12:51:15.637Z,26.62
2023-03-01T12:53:20.092Z,26.59
2023-03-01T12:55:24.575Z,26.54
2023-03-01T12:57:29.002Z,26.57
2023-03-01T12:59:33.503Z,26.53
2023-03-01T13:01:38.014Z,26.53
2023-03-01T13:03:42.778Z,26.54
2023-03-01T13:05:47.289Z,26.53
2023-03-01T13:07:51.780Z,26.52
2023-03-01T13:09:56.277Z,26.54
2023-03-01T13:12:04.330Z,26.51
2023-03-01T13:14:10.583Z,26.53
2023-03-01T13:16:17.865Z,26.53
2023-03-01T13:18:22.432Z,26.55
2023-03-01T13:20:26.907Z,26.57
2023-03-01T13:22:31.363Z,26.51
2023-03-01T13:24:35.766Z,26.53
2023-03-01T13:26:40.216Z,26.53
2023-03-01T13:28:44.666Z,26.58
2023-03-01T13:30:49.092Z,26.6
2023-03-01T13:32:53.972Z,26.62
2023-03-01T13:34:58.476Z,26.6
2023-03-01T13:37:02.887Z,26.64
2023-03-01T13:39:07.411Z,26.71
2023-03-01T13:41:11.951Z,26.71
2023-03-01T13:43:16.403Z,26.66
2023-03-01T13:45:20.941Z,26.67
2023-03-01T13:47:25.443Z,26.7
2023-03-01T13:49:47.073Z,26.68
2023-03-01T13:51:51.488Z,26.73
2023-03-01T13:53:55.942Z,26.71
2023-03-01T13:56:01.884Z,26.78
2023-03-01T13:58:06.352Z,26.73
2023-03-01T14:00:11.188Z,26.72
2023-03-01T14:02:15.683Z,26.73
2023-03-01T14:04:20.178Z,26.74
2023-03-01T14:06:24.645Z,26.73
2023-03-01T14:08:29.134Z,26.75
2023-03-01T14:10:33.626Z,26.74
2023-03-01T14:12:38.150Z,26.67
2023-03-01T14:14:42.590Z,26.71
2023-03-01T14:16:48.628Z,26.69
2023-03-01T14:18:53.144Z,26.76
2023-03-01T14:21:03.661Z,27.54
2023-03-01T14:23:08.759Z,26.87
2023-03-01T14:25:13.695Z,26.31
2023-03-01T14:27:21.674Z,25.83
2023-03-01T14:29:30.110Z,25.57
2023-03-01T14:31:55.224Z,25.37
2023-03-01T14:34:04.507Z,25.33
2023-03-01T14:36:12.222Z,25.5
2023-03-01T14:38:17.487Z,25.25
2023-03-01T14:40:26.802Z,25.52
2023-03-01T14:42:36.304Z,25.67
2023-03-01T14:44:42.984Z,25.56
2023-03-01T14:46:49.746Z,25.77
2023-03-01T14:48:59.316Z,26.02
2023-03-01T14:51:08.079Z,25.87
2023-03-01T14:53:17.983Z,26.06
2023-03-01T14:55:23.850Z,25.56
2023-03-01T14:57:28.900Z,25.07
2023-03-01T14:59:37.108Z,25.58
2023-03-01T15:01:43.175Z,25.74
2023-03-01T15:03:48.695Z,25.93
2023-03-01T15:05:53.846Z,25.96
2023-03-01T15:08:01.964Z,25.99
2023-03-01T15:10:12.392Z,26.26
2023-03-01T15:12:22.583Z,25.94
2023-03-01T15:14:30.229Z,26.32
2023-03-01T15:16:35.697Z,26.5
2023-03-01T15:18:41.967Z,26.67
2023-03-01T15:20:48.351Z,27.02
2023-03-01T15:22:55.174Z,26.79
2023-03-01T15:25:03.437Z,26.91
2023-03-01T15:27:11.441Z,26.84
2023-03-01T15:29:16.146Z,26.95
2023-03-01T15:31:22.483Z,27.01
2023-03-01T15:33:27.846Z,27.07
2023-03-01T15:35:35.018Z,27.11
2023-03-01T15:37:39.560Z,27.12
2023-03-01T15:39:44.741Z,27.05
2023-03-01T15:41:51.443Z,27.25
2023-03-01T15:44:01.138Z,27.29
2023-03-01T15:46:08.019Z,27.27
2023-03-01T15:48:16.343Z,27.33
2023-03-01T15:50:23.417Z,27.34
2023-03-01T15:52:29.409Z,27.45
2023-03-01T15:54:37.390Z,27.37
2023-03-01T15:56:47.407Z,27.54
2023-03-01T15:58:51.996Z,27.59
2023-03-01T16:01:03.825Z,27.59
2023-03-01T16:03:12.942Z,27.59
2023-03-01T16:05:23.344Z,27.62
2023-03-01T16:07:33.355Z,27.58
2023-03-01T16:09:42.141Z,27.73
2023-03-01T16:11:49.963Z,27.81
2023-03-01T16:13:59.814Z,27.78
2023-03-01T16:16:09.081Z,27.85
2023-03-01T16:18:15.780Z,27.88
2023-03-01T16:20:34.793Z,27.83
2023-03-01T16:22:41.676Z,27.85
2023-03-01T16:24:47.518Z,27.83
2023-03-01T16:26:53.634Z,27.93
2023-03-01T16:29:03.349Z,27.95
2023-03-01T16:31:12.505Z,28.04
2023-03-01T16:33:35.912Z,28.23
2023-03-01T16:35:43.856Z,28.26
2023-03-01T16:37:50.527Z,28.12
2023-03-01T16:39:59.995Z,28.16
2023-03-01T16:42:05.936Z,28.26
2023-03-01T16:44:14.341Z,28.25
2023-03-01T16:46:23.188Z,28.21
2023-03-01T16:48:31.058Z,28.24
2023-03-01T16:50:36.389Z,28.54
2023-03-01T16:53:05.779Z,28.38
2023-03-01T16:55:14.333Z,28.69
2023-03-01T16:59:28.803Z,28.44
2023-03-01T17:01:37.269Z,28.69
2023-03-01T17:03:46.784Z,28.83
2023-03-01T17:05:53.749Z,28.82
2023-03-01T17:08:01.321Z,28.91
2023-03-01T17:10:06.149Z,29.07
2023-03-01T17:12:12.200Z,29.39
2023-03-01T17:14:17.998Z,29.29
2023-03-01T17:16:26.307Z,29
2023-03-01T17:18:32.046Z,29.3
2023-03-01T17:20:38.736Z,28.97
2023-03-01T17:22:44.262Z,28.88
2023-03-01T17:24:54.468Z,28.81
2023-03-01T17:26:59.540Z,28.54
2023-03-01T17:29:04.908Z,28.71
2023-03-01T17:31:09.941Z,28.69
2023-03-01T17:33:15.351Z,28.99
2023-03-01T17:35:22.646Z,28.99
2023-03-01T17:37:28.033Z,28.9
2023-03-01T17:39:34.486Z,28.95
2023-03-01T17:41:41.171Z,29.19
2023-03-01T17:43:46.926Z,29.1
2023-03-01T17:45:52.369Z,29.24
2023-03-01T17:47:58.607Z,29.22
2023-03-01T17:50:04.791Z,29.13
2023-03-01T17:52:10.300Z,28.63
2023-03-01T17:54:15.315Z,27.78
2023-03-01T17:56:20.326Z,28.39
2023-03-01T17:58:25.195Z,27.96
2023-03-01T18:00:32.143Z,27.74
2023-03-01T18:02:37.236Z,27.78
2023-03-01T18:04:42.336Z,27.51
2023-03-01T18:06:49.515Z,27.5
2023-03-01T18:08:55.276Z,27.3
2023-03-01T18:11:02.970Z,27.66
2023-03-01T18:13:10.795Z,27.79
2023-03-01T18:15:22.064Z,27.66
2023-03-01T18:17:27.994Z,27.6
2023-03-01T18:19:33.601Z,27.48
2023-03-01T18:21:40.103Z,27.73
2023-03-01T18:23:47.175Z,27.4
2023-03-01T18:25:52.087Z,27.78
2023-03-01T18:27:58.530Z,26.1
2023-03-01T18:30:06.902Z,24.86
2023-03-01T18:32:12.775Z,24.24
2023-03-01T18:34:17.476Z,23.9
2023-03-01T18:36:24.625Z,23.52
2023-03-01T18:38:30.737Z,23.42
2023-03-01T18:40:39.304Z,23.34
2023-03-01T18:42:46.973Z,23.73
2023-03-01T18:44:54.616Z,23.45
2023-03-01T18:47:01.301Z,22.82
2023-03-01T18:49:08.058Z,22.74
2023-03-01T18:51:14.925Z,22.88
2023-03-01T18:53:22.152Z,24.61
2023-03-01T18:55:30.032Z,25.42
2023-03-01T18:57:34.796Z,25.83
2023-03-01T18:59:41.516Z,26.17
2023-03-01T19:01:50.138Z,26.37
2023-03-01T19:03:55.599Z,26.27
2023-03-01T19:06:00.655Z,26.61
2023-03-01T19:08:07.964Z,26.82
2023-03-01T19:10:13.578Z,27.01
2023-03-01T19:12:20.178Z,26.9
2023-03-01T19:14:25.828Z,27.29
2023-03-01T19:16:31.766Z,27.49
2023-03-01T19:18:37.605Z,26.63
2023-03-01T19:20:58.890Z,27.27
2023-03-01T19:23:08.341Z,26.96
2023-03-01T19:25:12.913Z,26.78
2023-03-01T19:27:18.184Z,26.86
2023-03-01T19:29:22.719Z,26.86
2023-03-01T19:31:28.258Z,27.32
2023-03-01T19:33:35.360Z,26.61
2023-03-01T19:35:42.340Z,23.68
2023-03-01T19:37:46.926Z,23.46
2023-03-01T19:39:51.840Z,23.27
2023-03-01T19:41:58.624Z,22.91
2023-03-01T19:44:03.377Z,23.47
2023-03-01T19:46:12.519Z,25.95
2023-03-01T19:48:19.052Z,25.54
2023-03-01T19:50:23.999Z,26.38
2023-03-01T19:52:29.978Z,26.42
2023-03-01T19:54:38.241Z,26.58
2023-03-01T19:56:47.120Z,27.01
2023-03-01T19:58:51.767Z,27.2
2023-03-01T20:01:00.122Z,27.36
2023-03-01T20:03:08.309Z,27.21
2023-03-01T20:05:18.236Z,27.5
2023-03-01T20:07:23.687Z,27.69
2023-03-01T20:09:32.020Z,27.65
2023-03-01T20:11:37.832Z,27.99
2023-03-01T20:13:42.408Z,28.02
2023-03-01T20:15:47.260Z,27.99
2023-03-01T20:17:53.945Z,28.02
2023-03-01T20:20:03.061Z,28.04
2023-03-01T20:22:11.400Z,28.25
2023-03-01T20:24:17.768Z,28.31
2023-03-01T20:26:23.563Z,28.43
2023-03-01T20:28:37.586Z,27.96
2023-03-01T20:30:43.367Z,27.61
2023-03-01T20:33:08.841Z,28.08
2023-03-01T20:35:14.025Z,27.79
2023-03-01T20:37:21.578Z,27.73
2023-03-01T20:39:28.197Z,28.22
2023-03-01T20:41:32.895Z,28.38
2023-03-01T20:43:38.523Z,28.53
2023-03-01T20:45:45.578Z,28.69
2023-03-01T20:47:50.288Z,29.01
2023-03-01T20:49:55.110Z,28.74
2023-03-01T20:52:02.087Z,28.71
2023-03-01T20:54:07.366Z,28.79
2023-03-01T20:56:15.914Z,28.84
2023-03-01T20:58:22.756Z,29.1
2023-03-01T21:00:27.601Z,29.02
2023-03-01T21:02:34.677Z,29.04
2023-03-01T21:04:39.768Z,28.85
2023-03-01T21:06:45.665Z,29.21
2023-03-01T21:08:51.854Z,27.61
2023-03-01T21:10:56.836Z,27.09
2023-03-01T21:13:03.172Z,26.56
2023-03-01T21:15:11.147Z,27.66
2023-03-01T21:17:19.094Z,28.12
2023-03-01T21:19:28.022Z,28.32
2023-03-01T21:21:36.287Z,28.4
2023-03-01T21:23:41.471Z,28.82
2023-03-01T21:25:48.294Z,28.92
2023-03-01T21:27:53.055Z,29.02
2023-03-01T21:29:58.105Z,29.34
2023-03-01T21:32:08.288Z,29.33
2023-03-01T21:34:12.926Z,29.16
2023-03-01T21:36:17.671Z,29.79
2023-03-01T21:38:27.434Z,29.56
2023-03-01T21:40:33.159Z,29.83
2023-03-01T21:42:37.876Z,29.66
2023-03-01T21:44:43.978Z,29.49
2023-03-01T21:46:49.044Z,30.05
2023-03-01T21:48:57.149Z,30.11
2023-03-01T21:51:03.067Z,30.01
2023-03-01T21:53:09.176Z,30.39
2023-03-01T21:55:15.030Z,29.61
2023-03-01T21:57:20.055Z,29.05
2023-03-01T21:59:24.744Z,28.44
2023-03-01T22:01:31.014Z,29.22
2023-03-01T22:03:36.864Z,29.57
2023-03-01T22:05:44.643Z,29.6
2023-03-01T22:07:50.309Z,29.59
2023-03-01T22:09:54.910Z,29.94
2023-03-01T22:12:01.318Z,29.93
2023-03-01T22:14:08.387Z,29.99
2023-03-01T22:16:14.261Z,30.13
2023-03-01T22:18:19.686Z,29.93
2023-03-01T22:20:25.439Z,30.15
2023-03-01T22:22:32.137Z,30.22
2023-03-01T22:24:36.957Z,30.24
2023-03-01T22:26:42.468Z,30.27
2023-03-01T22:28:47.720Z,30.32
2023-03-01T22:30:58.862Z,30.04
2023-03-01T22:33:05.352Z,30.68
2023-03-01T22:35:11.538Z,28.92
2023-03-01T22:37:17.051Z,28.79
2023-03-01T22:39:21.493Z,29.4
2023-03-01T22:41:25.893Z,29.96
2023-03-01T22:43:30.305Z,30.57
2023-03-01T22:45:35.032Z,28.27
2023-03-01T22:47:39.606Z,27.66
2023-03-01T22:49:44.210Z,26.82
2023-03-01T22:51:49.088Z,26.48
2023-03-01T22:53:53.760Z,26.67
2023-03-01T22:55:58.186Z,26.37
2023-03-01T22:58:02.992Z,25.77
2023-03-01T23:00:07.884Z,25.74
2023-03-01T23:02:12.796Z,25.35
2023-03-01T23:04:18.607Z,25.1
2023-03-01T23:06:23.032Z,25.36
2023-03-01T23:08:27.485Z,24.89
2023-03-01T23:10:32.973Z,24.75
2023-03-01T23:12:37.506Z,24.63
2023-03-01T23:14:42.064Z,24.54
2023-03-01T23:16:47.148Z,24.61
2023-03-01T23:18:51.914Z,24.46
2023-03-01T23:20:56.448Z,24.35
2023-03-01T23:23:00.815Z,24.29
2023-03-01T23:25:05.327Z,24.41
2023-03-01T23:27:09.871Z,24.23
2023-03-01T23:29:14.428Z,24.1
2023-03-01T23:31:19.232Z,24.36
2023-03-01T23:33:23.660Z,23.9
2023-03-01T23:35:28.195Z,23.89
2023-03-01T23:37:32.800Z,24.13
2023-03-01T23:39:37.342Z,23.83
2023-03-01T23:41:41.823Z,23.69
2023-03-01T23:43:46.612Z,23.74
2023-03-01T23:45:51.437Z,23.74
2023-03-01T23:47:56.154Z,23.7
2023-03-01T23:50:00.662Z,23.7
2023-03-01T23:52:05.087Z,23.64
2023-03-01T23:54:09.547Z,24.01
2023-03-01T23:56:14.053Z,23.38
2023-03-01T23:58:18.880Z,23.48
